sensor_id;sensor_type;location;lat;lon;timestamp;temperature;humidity
10848;DHT22;5477;48.806;9.154;2023-06-14T00:02:09;14.40;93.90
10848;DHT22;5477;48.806;9.154;2023-06-14T00:04:37;14.30;94.60
10848;DHT22;5477;48.806;9.154;2023-06-14T00:07:09;14.20;95.00
10848;DHT22;5477;48.806;9.154;2023-06-14T00:09:41;14.10;95.30
10848;DHT22;5477;48.806;9.154;2023-06-14T00:12:09;14.00;95.60
10848;DHT22;5477;48.806;9.154;2023-06-14T00:14:37;14.00;96.00
10848;DHT22;5477;48.806;9.154;2023-06-14T00:17:05;14.00;96.00
10848;DHT22;5477;48.806;9.154;2023-06-14T00:19:34;14.00;95.90
10848;DHT22;5477;48.806;9.154;2023-06-14T00:22:03;14.10;95.80
10848;DHT22;5477;48.806;9.154;2023-06-14T00:24:33;14.10;95.80
10848;DHT22;5477;48.806;9.154;2023-06-14T00:27:01;14.10;95.50
10848;DHT22;5477;48.806;9.154;2023-06-14T00:29:29;14.20;95.40
10848;DHT22;5477;48.806;9.154;2023-06-14T00:31:57;14.20;95.20
10848;DHT22;5477;48.806;9.154;2023-06-14T00:34:26;14.30;94.90
10848;DHT22;5477;48.806;9.154;2023-06-14T00:36:54;14.40;95.00
10848;DHT22;5477;48.806;9.154;2023-06-14T00:39:22;14.40;95.50
10848;DHT22;5477;48.806;9.154;2023-06-14T00:41:51;14.30;96.20
10848;DHT22;5477;48.806;9.154;2023-06-14T00:44:19;14.20;97.20
10848;DHT22;5477;48.806;9.154;2023-06-14T00:46:48;14.10;98.10
10848;DHT22;5477;48.806;9.154;2023-06-14T00:49:17;13.90;99.10
10848;DHT22;5477;48.806;9.154;2023-06-14T00:51:45;13.70;99.00
10848;DHT22;5477;48.806;9.154;2023-06-14T00:54:13;13.50;99.10
10848;DHT22;5477;48.806;9.154;2023-06-14T00:56:44;13.50;99.20
10848;DHT22;5477;48.806;9.154;2023-06-14T00:59:13;13.50;99.40
10848;DHT22;5477;48.806;9.154;2023-06-14T01:01:42;13.40;99.50
10848;DHT22;5477;48.806;9.154;2023-06-14T01:04:10;13.30;99.50
10848;DHT22;5477;48.806;9.154;2023-06-14T01:06:45;13.30;99.70
10848;DHT22;5477;48.806;9.154;2023-06-14T01:09:21;13.30;99.90
10848;DHT22;5477;48.806;9.154;2023-06-14T01:11:59;13.20;99.90
10848;DHT22;5477;48.806;9.154;2023-06-14T01:14:33;13.20;99.90
10848;DHT22;5477;48.806;9.154;2023-06-14T01:17:02;13.20;99.90
10848;DHT22;5477;48.806;9.154;2023-06-14T01:19:32;13.20;99.90
10848;DHT22;5477;48.806;9.154;2023-06-14T01:22:01;13.30;99.90
10848;DHT22;5477;48.806;9.154;2023-06-14T01:24:31;13.30;99.90
10848;DHT22;5477;48.806;9.154;2023-06-14T01:27:02;13.40;99.90
10848;DHT22;5477;48.806;9.154;2023-06-14T01:29:31;13.50;99.90
10848;DHT22;5477;48.806;9.154;2023-06-14T01:32:00;13.50;99.90
10848;DHT22;5477;48.806;9.154;2023-06-14T01:34:30;13.60;99.90
10848;DHT22;5477;48.806;9.154;2023-06-14T01:37:00;13.60;99.90
10848;DHT22;5477;48.806;9.154;2023-06-14T01:39:32;13.60;99.90
10848;DHT22;5477;48.806;9.154;2023-06-14T01:42:01;13.50;99.90
10848;DHT22;5477;48.806;9.154;2023-06-14T01:44:29;13.30;99.90
10848;DHT22;5477;48.806;9.154;2023-06-14T01:47:00;13.30;99.90
10848;DHT22;5477;48.806;9.154;2023-06-14T01:49:29;13.20;99.90
10848;DHT22;5477;48.806;9.154;2023-06-14T01:51:57;13.10;99.90
10848;DHT22;5477;48.806;9.154;2023-06-14T01:54:25;13.10;99.90
10848;DHT22;5477;48.806;9.154;2023-06-14T01:56:56;13.00;99.90
10848;DHT22;5477;48.806;9.154;2023-06-14T01:59:24;12.90;99.90
10848;DHT22;5477;48.806;9.154;2023-06-14T02:01:52;12.80;99.90
10848;DHT22;5477;48.806;9.154;2023-06-14T02:04:21;12.70;99.90
10848;DHT22;5477;48.806;9.154;2023-06-14T02:06:49;12.60;99.90
10848;DHT22;5477;48.806;9.154;2023-06-14T02:09:17;12.60;99.90
10848;DHT22;5477;48.806;9.154;2023-06-14T02:11:45;12.60;99.90
10848;DHT22;5477;48.806;9.154;2023-06-14T02:14:15;12.60;99.90
10848;DHT22;5477;48.806;9.154;2023-06-14T02:16:43;12.70;99.90
10848;DHT22;5477;48.806;9.154;2023-06-14T02:19:16;12.70;99.90
10848;DHT22;5477;48.806;9.154;2023-06-14T02:21:44;12.70;99.90
10848;DHT22;5477;48.806;9.154;2023-06-14T02:24:13;12.80;99.90
10848;DHT22;5477;48.806;9.154;2023-06-14T02:26:41;12.80;99.90
10848;DHT22;5477;48.806;9.154;2023-06-14T02:29:15;12.80;99.90
10848;DHT22;5477;48.806;9.154;2023-06-14T02:31:43;12.80;99.90
10848;DHT22;5477;48.806;9.154;2023-06-14T02:34:13;12.80;99.90
10848;DHT22;5477;48.806;9.154;2023-06-14T02:36:43;12.80;99.90
10848;DHT22;5477;48.806;9.154;2023-06-14T02:39:12;12.70;99.90
10848;DHT22;5477;48.806;9.154;2023-06-14T02:41:40;12.60;99.90
10848;DHT22;5477;48.806;9.154;2023-06-14T02:44:10;12.50;99.90
10848;DHT22;5477;48.806;9.154;2023-06-14T02:46:40;12.40;99.90
10848;DHT22;5477;48.806;9.154;2023-06-14T02:49:10;12.20;99.90
10848;DHT22;5477;48.806;9.154;2023-06-14T02:51:38;12.20;99.90
10848;DHT22;5477;48.806;9.154;2023-06-14T02:54:07;12.10;99.90
10848;DHT22;5477;48.806;9.154;2023-06-14T02:56:35;12.10;99.90
10848;DHT22;5477;48.806;9.154;2023-06-14T02:59:03;12.20;99.90
10848;DHT22;5477;48.806;9.154;2023-06-14T03:01:32;12.10;99.90
10848;DHT22;5477;48.806;9.154;2023-06-14T03:04:07;12.10;99.90
10848;DHT22;5477;48.806;9.154;2023-06-14T03:06:38;12.20;99.90
10848;DHT22;5477;48.806;9.154;2023-06-14T03:09:07;12.20;99.90
10848;DHT22;5477;48.806;9.154;2023-06-14T03:11:38;12.20;99.90
10848;DHT22;5477;48.806;9.154;2023-06-14T03:14:06;12.20;99.90
10848;DHT22;5477;48.806;9.154;2023-06-14T03:16:36;12.10;99.90
10848;DHT22;5477;48.806;9.154;2023-06-14T03:19:06;12.10;99.90
10848;DHT22;5477;48.806;9.154;2023-06-14T03:21:34;12.10;99.90
10848;DHT22;5477;48.806;9.154;2023-06-14T03:24:03;12.10;99.90
10848;DHT22;5477;48.806;9.154;2023-06-14T03:26:34;12.00;99.90
10848;DHT22;5477;48.806;9.154;2023-06-14T03:29:03;12.10;99.90
10848;DHT22;5477;48.806;9.154;2023-06-14T03:31:32;12.10;99.90
10848;DHT22;5477;48.806;9.154;2023-06-14T03:34:02;12.00;99.90
10848;DHT22;5477;48.806;9.154;2023-06-14T03:36:32;12.10;99.90
10848;DHT22;5477;48.806;9.154;2023-06-14T03:39:01;12.10;99.90
10848;DHT22;5477;48.806;9.154;2023-06-14T03:41:29;12.10;99.90
10848;DHT22;5477;48.806;9.154;2023-06-14T03:43:57;12.10;99.90
10848;DHT22;5477;48.806;9.154;2023-06-14T03:46:25;12.10;99.90
10848;DHT22;5477;48.806;9.154;2023-06-14T03:48:53;12.20;99.90
10848;DHT22;5477;48.806;9.154;2023-06-14T03:51:21;12.10;99.90
10848;DHT22;5477;48.806;9.154;2023-06-14T03:53:51;12.10;99.90
10848;DHT22;5477;48.806;9.154;2023-06-14T03:56:39;12.10;99.90
10848;DHT22;5477;48.806;9.154;2023-06-14T03:59:09;12.10;99.90
10848;DHT22;5477;48.806;9.154;2023-06-14T04:01:37;12.20;99.90
10848;DHT22;5477;48.806;9.154;2023-06-14T04:04:14;12.20;99.90
10848;DHT22;5477;48.806;9.154;2023-06-14T04:06:43;12.20;99.90
10848;DHT22;5477;48.806;9.154;2023-06-14T04:09:16;12.20;99.90
10848;DHT22;5477;48.806;9.154;2023-06-14T04:11:45;12.20;99.90
10848;DHT22;5477;48.806;9.154;2023-06-14T04:14:13;12.20;99.90
10848;DHT22;5477;48.806;9.154;2023-06-14T04:16:41;12.20;99.90
10848;DHT22;5477;48.806;9.154;2023-06-14T04:19:09;12.20;99.90
10848;DHT22;5477;48.806;9.154;2023-06-14T04:21:38;12.30;99.90
10848;DHT22;5477;48.806;9.154;2023-06-14T04:24:06;12.30;99.90
10848;DHT22;5477;48.806;9.154;2023-06-14T04:26:43;12.50;99.90
10848;DHT22;5477;48.806;9.154;2023-06-14T04:29:14;12.50;99.90
10848;DHT22;5477;48.806;9.154;2023-06-14T04:31:46;12.60;99.90
10848;DHT22;5477;48.806;9.154;2023-06-14T04:34:15;12.70;99.90
10848;DHT22;5477;48.806;9.154;2023-06-14T04:36:52;12.80;99.90
10848;DHT22;5477;48.806;9.154;2023-06-14T04:39:28;12.80;99.90
10848;DHT22;5477;48.806;9.154;2023-06-14T04:41:59;12.90;99.90
10848;DHT22;5477;48.806;9.154;2023-06-14T04:44:31;12.90;99.90
10848;DHT22;5477;48.806;9.154;2023-06-14T04:47:03;13.00;99.90
10848;DHT22;5477;48.806;9.154;2023-06-14T04:49:33;13.10;99.90
10848;DHT22;5477;48.806;9.154;2023-06-14T04:52:01;13.20;99.90
10848;DHT22;5477;48.806;9.154;2023-06-14T04:54:37;13.40;99.90
10848;DHT22;5477;48.806;9.154;2023-06-14T04:57:10;13.60;99.90
10848;DHT22;5477;48.806;9.154;2023-06-14T04:59:43;13.80;99.90
10848;DHT22;5477;48.806;9.154;2023-06-14T05:02:11;14.00;99.90
10848;DHT22;5477;48.806;9.154;2023-06-14T05:04:39;14.10;99.90
10848;DHT22;5477;48.806;9.154;2023-06-14T05:07:08;14.30;99.90
10848;DHT22;5477;48.806;9.154;2023-06-14T05:09:36;14.50;99.90
10848;DHT22;5477;48.806;9.154;2023-06-14T05:12:06;14.60;99.90
10848;DHT22;5477;48.806;9.154;2023-06-14T05:14:36;14.90;99.90
10848;DHT22;5477;48.806;9.154;2023-06-14T05:17:05;15.00;99.90
10848;DHT22;5477;48.806;9.154;2023-06-14T05:19:34;15.20;99.90
10848;DHT22;5477;48.806;9.154;2023-06-14T05:22:02;15.30;99.90
10848;DHT22;5477;48.806;9.154;2023-06-14T05:24:31;15.50;99.90
10848;DHT22;5477;48.806;9.154;2023-06-14T05:26:59;15.60;99.90
10848;DHT22;5477;48.806;9.154;2023-06-14T05:29:27;15.70;99.90
10848;DHT22;5477;48.806;9.154;2023-06-14T05:31:58;15.80;99.90
10848;DHT22;5477;48.806;9.154;2023-06-14T05:34:27;15.90;99.90
10848;DHT22;5477;48.806;9.154;2023-06-14T05:36:55;16.10;99.90
10848;DHT22;5477;48.806;9.154;2023-06-14T05:39:23;16.20;99.90
10848;DHT22;5477;48.806;9.154;2023-06-14T05:41:51;16.40;99.90
10848;DHT22;5477;48.806;9.154;2023-06-14T05:44:19;16.60;99.90
10848;DHT22;5477;48.806;9.154;2023-06-14T05:46:48;16.70;99.90
10848;DHT22;5477;48.806;9.154;2023-06-14T05:49:17;16.90;99.90
10848;DHT22;5477;48.806;9.154;2023-06-14T05:51:46;17.00;99.90
10848;DHT22;5477;48.806;9.154;2023-06-14T05:54:14;17.10;99.90
10848;DHT22;5477;48.806;9.154;2023-06-14T05:56:43;17.20;99.90
10848;DHT22;5477;48.806;9.154;2023-06-14T05:59:11;17.30;99.60
10848;DHT22;5477;48.806;9.154;2023-06-14T06:01:39;17.40;99.40
10848;DHT22;5477;48.806;9.154;2023-06-14T06:04:08;17.40;99.50
10848;DHT22;5477;48.806;9.154;2023-06-14T06:06:38;17.50;99.40
10848;DHT22;5477;48.806;9.154;2023-06-14T06:09:06;17.70;98.80
10848;DHT22;5477;48.806;9.154;2023-06-14T06:11:35;17.70;98.40
10848;DHT22;5477;48.806;9.154;2023-06-14T06:14:19;17.80;98.20
10848;DHT22;5477;48.806;9.154;2023-06-14T06:16:47;18.00;97.70
10848;DHT22;5477;48.806;9.154;2023-06-14T06:19:15;18.20;97.40
10848;DHT22;5477;48.806;9.154;2023-06-14T06:21:44;18.30;96.70
10848;DHT22;5477;48.806;9.154;2023-06-14T06:24:12;18.40;96.40
10848;DHT22;5477;48.806;9.154;2023-06-14T06:26:40;18.50;95.60
10848;DHT22;5477;48.806;9.154;2023-06-14T06:29:08;18.60;95.10
10848;DHT22;5477;48.806;9.154;2023-06-14T06:31:37;18.70;94.90
10848;DHT22;5477;48.806;9.154;2023-06-14T06:34:05;18.80;95.00
10848;DHT22;5477;48.806;9.154;2023-06-14T06:36:33;19.00;94.70
10848;DHT22;5477;48.806;9.154;2023-06-14T06:39:03;19.00;94.50
10848;DHT22;5477;48.806;9.154;2023-06-14T06:41:37;19.00;94.30
10848;DHT22;5477;48.806;9.154;2023-06-14T06:44:06;19.20;94.40
10848;DHT22;5477;48.806;9.154;2023-06-14T06:46:39;19.20;93.90
10848;DHT22;5477;48.806;9.154;2023-06-14T06:49:08;19.30;92.60
10848;DHT22;5477;48.806;9.154;2023-06-14T06:51:36;19.30;91.80
10848;DHT22;5477;48.806;9.154;2023-06-14T06:54:05;19.30;91.20
10848;DHT22;5477;48.806;9.154;2023-06-14T06:56:34;19.50;91.30
10848;DHT22;5477;48.806;9.154;2023-06-14T06:59:02;19.60;90.00
10848;DHT22;5477;48.806;9.154;2023-06-14T07:01:30;19.80;90.40
10848;DHT22;5477;48.806;9.154;2023-06-14T07:04:00;20.00;90.40
10848;DHT22;5477;48.806;9.154;2023-06-14T07:06:30;20.10;90.10
10848;DHT22;5477;48.806;9.154;2023-06-14T07:08:58;20.20;90.00
10848;DHT22;5477;48.806;9.154;2023-06-14T07:11:29;20.10;90.20
10848;DHT22;5477;48.806;9.154;2023-06-14T07:13:57;20.10;89.70
10848;DHT22;5477;48.806;9.154;2023-06-14T07:16:25;20.20;89.20
10848;DHT22;5477;48.806;9.154;2023-06-14T07:18:54;20.10;89.10
10848;DHT22;5477;48.806;9.154;2023-06-14T07:21:22;20.20;89.10
10848;DHT22;5477;48.806;9.154;2023-06-14T07:23:50;20.30;90.00
10848;DHT22;5477;48.806;9.154;2023-06-14T07:26:18;20.30;89.60
10848;DHT22;5477;48.806;9.154;2023-06-14T07:28:47;20.30;89.40
10848;DHT22;5477;48.806;9.154;2023-06-14T07:31:16;20.30;89.00
10848;DHT22;5477;48.806;9.154;2023-06-14T07:33:45;20.40;87.70
10848;DHT22;5477;48.806;9.154;2023-06-14T07:36:14;20.50;86.60
10848;DHT22;5477;48.806;9.154;2023-06-14T07:38:42;20.40;87.50
10848;DHT22;5477;48.806;9.154;2023-06-14T07:41:10;20.40;88.30
10848;DHT22;5477;48.806;9.154;2023-06-14T07:43:38;20.50;87.60
10848;DHT22;5477;48.806;9.154;2023-06-14T07:46:07;20.60;85.70
10848;DHT22;5477;48.806;9.154;2023-06-14T07:48:36;20.60;85.00
10848;DHT22;5477;48.806;9.154;2023-06-14T07:51:04;20.60;83.70
10848;DHT22;5477;48.806;9.154;2023-06-14T07:53:32;20.50;82.50
10848;DHT22;5477;48.806;9.154;2023-06-14T07:56:01;20.50;85.00
10848;DHT22;5477;48.806;9.154;2023-06-14T07:58:29;20.40;85.80
10848;DHT22;5477;48.806;9.154;2023-06-14T08:00:57;20.50;86.40
10848;DHT22;5477;48.806;9.154;2023-06-14T08:03:27;20.60;87.70
10848;DHT22;5477;48.806;9.154;2023-06-14T08:05:57;20.60;88.50
10848;DHT22;5477;48.806;9.154;2023-06-14T08:08:25;20.80;88.60
10848;DHT22;5477;48.806;9.154;2023-06-14T08:10:53;20.90;87.50
10848;DHT22;5477;48.806;9.154;2023-06-14T08:13:21;21.00;87.10
10848;DHT22;5477;48.806;9.154;2023-06-14T08:15:49;21.10;87.10
10848;DHT22;5477;48.806;9.154;2023-06-14T08:18:17;21.20;86.90
10848;DHT22;5477;48.806;9.154;2023-06-14T08:20:47;21.30;86.90
10848;DHT22;5477;48.806;9.154;2023-06-14T08:23:15;21.40;87.00
10848;DHT22;5477;48.806;9.154;2023-06-14T08:25:46;21.60;86.20
10848;DHT22;5477;48.806;9.154;2023-06-14T08:28:14;21.80;85.70
10848;DHT22;5477;48.806;9.154;2023-06-14T08:30:42;22.00;84.00
10848;DHT22;5477;48.806;9.154;2023-06-14T08:33:10;22.10;84.50
10848;DHT22;5477;48.806;9.154;2023-06-14T08:35:43;22.10;83.00
10848;DHT22;5477;48.806;9.154;2023-06-14T08:38:12;21.90;82.90
10848;DHT22;5477;48.806;9.154;2023-06-14T08:40:41;21.90;83.70
10848;DHT22;5477;48.806;9.154;2023-06-14T08:43:11;21.90;82.80
10848;DHT22;5477;48.806;9.154;2023-06-14T08:45:39;21.90;82.80
10848;DHT22;5477;48.806;9.154;2023-06-14T08:48:07;22.00;82.50
10848;DHT22;5477;48.806;9.154;2023-06-14T08:50:37;21.90;82.70
10848;DHT22;5477;48.806;9.154;2023-06-14T08:53:13;21.90;82.70
10848;DHT22;5477;48.806;9.154;2023-06-14T08:55:46;22.10;82.50
10848;DHT22;5477;48.806;9.154;2023-06-14T08:58:15;22.20;82.00
10848;DHT22;5477;48.806;9.154;2023-06-14T09:00:44;22.30;82.60
10848;DHT22;5477;48.806;9.154;2023-06-14T09:03:13;22.40;81.30
10848;DHT22;5477;48.806;9.154;2023-06-14T09:05:42;22.40;80.90
10848;DHT22;5477;48.806;9.154;2023-06-14T09:08:10;22.40;82.30
10848;DHT22;5477;48.806;9.154;2023-06-14T09:10:40;22.50;80.60
10848;DHT22;5477;48.806;9.154;2023-06-14T09:13:08;22.50;79.70
10848;DHT22;5477;48.806;9.154;2023-06-14T09:15:36;22.60;80.00
10848;DHT22;5477;48.806;9.154;2023-06-14T09:18:04;22.70;80.40
10848;DHT22;5477;48.806;9.154;2023-06-14T09:20:33;22.70;80.70
10848;DHT22;5477;48.806;9.154;2023-06-14T09:23:02;22.70;80.30
10848;DHT22;5477;48.806;9.154;2023-06-14T09:25:32;22.90;79.40
10848;DHT22;5477;48.806;9.154;2023-06-14T09:28:10;22.90;78.90
10848;DHT22;5477;48.806;9.154;2023-06-14T09:30:38;22.90;78.40
10848;DHT22;5477;48.806;9.154;2023-06-14T09:33:06;22.90;78.50
10848;DHT22;5477;48.806;9.154;2023-06-14T09:35:35;22.90;77.90
10848;DHT22;5477;48.806;9.154;2023-06-14T09:38:03;23.00;77.00
10848;DHT22;5477;48.806;9.154;2023-06-14T09:40:34;23.20;76.00
10848;DHT22;5477;48.806;9.154;2023-06-14T09:43:05;23.50;75.70
10848;DHT22;5477;48.806;9.154;2023-06-14T09:45:37;23.60;74.60
10848;DHT22;5477;48.806;9.154;2023-06-14T09:48:07;23.60;75.50
10848;DHT22;5477;48.806;9.154;2023-06-14T09:50:35;23.70;75.50
10848;DHT22;5477;48.806;9.154;2023-06-14T09:53:06;23.80;73.90
10848;DHT22;5477;48.806;9.154;2023-06-14T09:55:36;23.90;70.80
10848;DHT22;5477;48.806;9.154;2023-06-14T09:58:07;24.20;70.10
10848;DHT22;5477;48.806;9.154;2023-06-14T10:00:37;24.30;70.20
10848;DHT22;5477;48.806;9.154;2023-06-14T10:03:12;24.20;70.10
10848;DHT22;5477;48.806;9.154;2023-06-14T10:05:43;24.50;68.90
10848;DHT22;5477;48.806;9.154;2023-06-14T10:08:14;24.80;68.00
10848;DHT22;5477;48.806;9.154;2023-06-14T10:10:43;25.10;67.00
10848;DHT22;5477;48.806;9.154;2023-06-14T10:13:12;25.40;60.00
10848;DHT22;5477;48.806;9.154;2023-06-14T10:15:50;25.50;56.80
10848;DHT22;5477;48.806;9.154;2023-06-14T10:18:27;25.60;55.40
10848;DHT22;5477;48.806;9.154;2023-06-14T10:21:03;25.40;56.20
10848;DHT22;5477;48.806;9.154;2023-06-14T10:23:37;25.30;58.40
10848;DHT22;5477;48.806;9.154;2023-06-14T10:26:08;25.30;59.20
10848;DHT22;5477;48.806;9.154;2023-06-14T10:28:37;25.40;60.30
10848;DHT22;5477;48.806;9.154;2023-06-14T10:31:08;25.50;60.80
10848;DHT22;5477;48.806;9.154;2023-06-14T10:33:40;25.70;59.90
10848;DHT22;5477;48.806;9.154;2023-06-14T10:36:26;26.10;58.70
10848;DHT22;5477;48.806;9.154;2023-06-14T10:38:59;26.40;58.70
10848;DHT22;5477;48.806;9.154;2023-06-14T10:41:28;26.20;55.90
10848;DHT22;5477;48.806;9.154;2023-06-14T10:46:58;26.10;56.60
10848;DHT22;5477;48.806;9.154;2023-06-14T10:49:38;26.20;55.90
10848;DHT22;5477;48.806;9.154;2023-06-14T10:52:10;26.60;56.50
10848;DHT22;5477;48.806;9.154;2023-06-14T10:55:16;26.80;55.30
10848;DHT22;5477;48.806;9.154;2023-06-14T10:57:47;26.70;55.60
10848;DHT22;5477;48.806;9.154;2023-06-14T11:00:21;26.60;55.30
10848;DHT22;5477;48.806;9.154;2023-06-14T11:03:27;26.40;54.80
10848;DHT22;5477;48.806;9.154;2023-06-14T11:05:59;26.50;54.40
10848;DHT22;5477;48.806;9.154;2023-06-14T11:11:41;26.00;53.60
10848;DHT22;5477;48.806;9.154;2023-06-14T11:14:10;26.20;52.20
10848;DHT22;5477;48.806;9.154;2023-06-14T11:16:38;26.70;51.20
10848;DHT22;5477;48.806;9.154;2023-06-14T11:19:08;27.10;50.40
10848;DHT22;5477;48.806;9.154;2023-06-14T11:21:40;27.60;50.20
10848;DHT22;5477;48.806;9.154;2023-06-14T11:24:10;27.90;48.90
10848;DHT22;5477;48.806;9.154;2023-06-14T11:26:39;28.40;48.90
10848;DHT22;5477;48.806;9.154;2023-06-14T11:29:08;28.30;49.10
10848;DHT22;5477;48.806;9.154;2023-06-14T11:31:36;28.20;48.30
10848;DHT22;5477;48.806;9.154;2023-06-14T11:34:04;27.60;48.10
10848;DHT22;5477;48.806;9.154;2023-06-14T11:36:35;27.10;49.70
10848;DHT22;5477;48.806;9.154;2023-06-14T11:39:04;27.10;49.70
10848;DHT22;5477;48.806;9.154;2023-06-14T11:41:36;27.10;49.40
10848;DHT22;5477;48.806;9.154;2023-06-14T11:44:05;27.10;49.70
10848;DHT22;5477;48.806;9.154;2023-06-14T11:46:34;27.10;49.00
10848;DHT22;5477;48.806;9.154;2023-06-14T11:49:03;27.00;48.90
10848;DHT22;5477;48.806;9.154;2023-06-14T11:51:35;26.90;49.60
10848;DHT22;5477;48.806;9.154;2023-06-14T11:54:04;26.90;49.90
10848;DHT22;5477;48.806;9.154;2023-06-14T11:56:33;26.90;50.10
10848;DHT22;5477;48.806;9.154;2023-06-14T11:59:03;26.80;49.80
10848;DHT22;5477;48.806;9.154;2023-06-14T12:01:36;26.60;49.50
10848;DHT22;5477;48.806;9.154;2023-06-14T12:04:06;26.70;49.60
10848;DHT22;5477;48.806;9.154;2023-06-14T12:06:36;27.30;49.40
10848;DHT22;5477;48.806;9.154;2023-06-14T12:09:07;27.80;48.40
10848;DHT22;5477;48.806;9.154;2023-06-14T12:11:40;28.40;47.30
10848;DHT22;5477;48.806;9.154;2023-06-14T12:14:09;28.50;46.90
10848;DHT22;5477;48.806;9.154;2023-06-14T12:16:38;28.80;47.10
10848;DHT22;5477;48.806;9.154;2023-06-14T12:19:13;28.90;46.70
10848;DHT22;5477;48.806;9.154;2023-06-14T12:21:45;29.20;46.40
10848;DHT22;5477;48.806;9.154;2023-06-14T12:24:15;29.40;46.40
10848;DHT22;5477;48.806;9.154;2023-06-14T12:26:43;29.20;46.40
10848;DHT22;5477;48.806;9.154;2023-06-14T12:29:12;29.00;46.20
10848;DHT22;5477;48.806;9.154;2023-06-14T12:31:40;28.30;46.70
10848;DHT22;5477;48.806;9.154;2023-06-14T12:34:09;28.30;46.90
10848;DHT22;5477;48.806;9.154;2023-06-14T12:36:38;28.30;46.50
10848;DHT22;5477;48.806;9.154;2023-06-14T12:39:12;28.50;46.60
10848;DHT22;5477;48.806;9.154;2023-06-14T12:41:41;28.70;46.20
10848;DHT22;5477;48.806;9.154;2023-06-14T12:44:10;29.20;45.50
10848;DHT22;5477;48.806;9.154;2023-06-14T12:46:38;29.30;45.50
10848;DHT22;5477;48.806;9.154;2023-06-14T12:49:08;29.20;45.20
10848;DHT22;5477;48.806;9.154;2023-06-14T12:51:37;29.00;45.80
10848;DHT22;5477;48.806;9.154;2023-06-14T12:54:06;29.50;45.50
10848;DHT22;5477;48.806;9.154;2023-06-14T12:56:35;29.80;44.40
10848;DHT22;5477;48.806;9.154;2023-06-14T12:59:03;30.00;44.20
10848;DHT22;5477;48.806;9.154;2023-06-14T13:01:33;29.90;43.90
10848;DHT22;5477;48.806;9.154;2023-06-14T13:04:01;29.70;43.80
10848;DHT22;5477;48.806;9.154;2023-06-14T13:06:29;29.50;43.30
10848;DHT22;5477;48.806;9.154;2023-06-14T13:08:58;28.90;43.60
10848;DHT22;5477;48.806;9.154;2023-06-14T13:11:26;28.40;45.00
10848;DHT22;5477;48.806;9.154;2023-06-14T13:13:56;29.00;45.30
10848;DHT22;5477;48.806;9.154;2023-06-14T13:16:24;29.50;45.10
10848;DHT22;5477;48.806;9.154;2023-06-14T13:18:52;30.10;44.20
10848;DHT22;5477;48.806;9.154;2023-06-14T13:21:20;31.10;43.30
10848;DHT22;5477;48.806;9.154;2023-06-14T13:23:48;31.70;42.00
10848;DHT22;5477;48.806;9.154;2023-06-14T13:26:16;31.80;41.40
10848;DHT22;5477;48.806;9.154;2023-06-14T13:28:45;32.30;41.10
10848;DHT22;5477;48.806;9.154;2023-06-14T13:31:14;32.60;41.00
10848;DHT22;5477;48.806;9.154;2023-06-14T13:33:42;32.80;40.20
10848;DHT22;5477;48.806;9.154;2023-06-14T13:36:10;32.90;39.50
10848;DHT22;5477;48.806;9.154;2023-06-14T13:38:38;33.50;39.20
10848;DHT22;5477;48.806;9.154;2023-06-14T13:41:06;33.30;38.50
10848;DHT22;5477;48.806;9.154;2023-06-14T13:43:34;33.00;38.80
10848;DHT22;5477;48.806;9.154;2023-06-14T13:46:02;33.60;37.90
10848;DHT22;5477;48.806;9.154;2023-06-14T13:48:31;33.70;38.20
10848;DHT22;5477;48.806;9.154;2023-06-14T13:50:59;33.50;37.90
10848;DHT22;5477;48.806;9.154;2023-06-14T13:53:27;33.40;37.60
10848;DHT22;5477;48.806;9.154;2023-06-14T13:55:56;34.10;37.60
10848;DHT22;5477;48.806;9.154;2023-06-14T13:58:23;34.80;36.70
10848;DHT22;5477;48.806;9.154;2023-06-14T14:00:52;33.90;37.00
10848;DHT22;5477;48.806;9.154;2023-06-14T14:03:21;32.20;38.40
10848;DHT22;5477;48.806;9.154;2023-06-14T14:05:50;31.50;39.50
10848;DHT22;5477;48.806;9.154;2023-06-14T14:08:18;31.60;39.60
10848;DHT22;5477;48.806;9.154;2023-06-14T14:10:46;31.60;39.60
10848;DHT22;5477;48.806;9.154;2023-06-14T14:13:14;31.40;39.70
10848;DHT22;5477;48.806;9.154;2023-06-14T14:15:42;30.80;40.20
10848;DHT22;5477;48.806;9.154;2023-06-14T14:18:10;30.20;40.60
10848;DHT22;5477;48.806;9.154;2023-06-14T14:20:38;29.70;42.20
10848;DHT22;5477;48.806;9.154;2023-06-14T14:23:07;29.30;43.20
10848;DHT22;5477;48.806;9.154;2023-06-14T14:25:35;28.80;44.10
10848;DHT22;5477;48.806;9.154;2023-06-14T14:28:04;28.10;44.40
10848;DHT22;5477;48.806;9.154;2023-06-14T14:30:31;27.60;45.00
10848;DHT22;5477;48.806;9.154;2023-06-14T14:33:00;27.70;45.10
10848;DHT22;5477;48.806;9.154;2023-06-14T14:35:28;27.90;45.00
10848;DHT22;5477;48.806;9.154;2023-06-14T14:37:57;28.40;44.50
10848;DHT22;5477;48.806;9.154;2023-06-14T14:40:26;28.80;44.00
10848;DHT22;5477;48.806;9.154;2023-06-14T14:42:54;28.90;43.70
10848;DHT22;5477;48.806;9.154;2023-06-14T14:45:22;28.50;43.70
10848;DHT22;5477;48.806;9.154;2023-06-14T14:47:50;28.00;44.20
10848;DHT22;5477;48.806;9.154;2023-06-14T14:50:22;27.70;44.60
10848;DHT22;5477;48.806;9.154;2023-06-14T14:52:50;28.10;44.60
10848;DHT22;5477;48.806;9.154;2023-06-14T14:55:18;29.00;43.30
10848;DHT22;5477;48.806;9.154;2023-06-14T14:57:47;30.10;42.30
10848;DHT22;5477;48.806;9.154;2023-06-14T15:00:16;30.30;41.70
10848;DHT22;5477;48.806;9.154;2023-06-14T15:02:45;29.90;41.70
10848;DHT22;5477;48.806;9.154;2023-06-14T15:05:13;29.20;42.50
10848;DHT22;5477;48.806;9.154;2023-06-14T15:07:41;28.70;43.50
10848;DHT22;5477;48.806;9.154;2023-06-14T15:10:09;28.10;44.60
10848;DHT22;5477;48.806;9.154;2023-06-14T15:12:37;27.70;45.40
10848;DHT22;5477;48.806;9.154;2023-06-14T15:15:07;27.20;45.80
10848;DHT22;5477;48.806;9.154;2023-06-14T15:17:36;26.90;46.40
10848;DHT22;5477;48.806;9.154;2023-06-14T15:20:05;26.70;46.70
10848;DHT22;5477;48.806;9.154;2023-06-14T15:22:33;26.90;46.80
10848;DHT22;5477;48.806;9.154;2023-06-14T15:25:01;28.20;45.80
10848;DHT22;5477;48.806;9.154;2023-06-14T15:27:30;29.80;44.10
10848;DHT22;5477;48.806;9.154;2023-06-14T15:29:58;30.70;42.30
10848;DHT22;5477;48.806;9.154;2023-06-14T15:32:27;30.80;41.90
10848;DHT22;5477;48.806;9.154;2023-06-14T15:34:55;30.60;42.20
10848;DHT22;5477;48.806;9.154;2023-06-14T15:37:23;30.30;42.60
10848;DHT22;5477;48.806;9.154;2023-06-14T15:39:51;29.20;43.30
10848;DHT22;5477;48.806;9.154;2023-06-14T15:42:19;29.10;44.30
10848;DHT22;5477;48.806;9.154;2023-06-14T15:44:47;29.00;43.60
10848;DHT22;5477;48.806;9.154;2023-06-14T15:47:15;28.40;44.30
10848;DHT22;5477;48.806;9.154;2023-06-14T15:49:44;27.80;45.30
10848;DHT22;5477;48.806;9.154;2023-06-14T15:52:12;27.60;45.50
10848;DHT22;5477;48.806;9.154;2023-06-14T15:54:40;28.00;45.10
10848;DHT22;5477;48.806;9.154;2023-06-14T15:57:08;29.00;45.00
10848;DHT22;5477;48.806;9.154;2023-06-14T15:59:38;29.70;43.30
10848;DHT22;5477;48.806;9.154;2023-06-14T16:02:06;29.60;42.70
10848;DHT22;5477;48.806;9.154;2023-06-14T16:04:34;29.20;43.30
10848;DHT22;5477;48.806;9.154;2023-06-14T16:07:03;28.50;43.70